createdAt,value
2018-08-23T00:00:38.358Z,21.20
2018-08-23T00:03:15.268Z,21.20
2018-08-23T00:05:49.586Z,21.20
2018-08-23T00:08:18.595Z,21.10
2018-08-23T00:10:47.714Z,21.10
2018-08-23T00:13:16.210Z,21.10
2018-08-23T00:15:44.761Z,21.10
2018-08-23T00:18:14.382Z,21.10
2018-08-23T00:20:43.045Z,21.00
2018-08-23T00:23:11.499Z,21.00
2018-08-23T00:25:40.203Z,21.00
2018-08-23T00:28:09.148Z,21.00
2018-08-23T00:30:38.279Z,21.00
2018-08-23T00:33:07.243Z,21.00
2018-08-23T00:35:37.940Z,20.90
2018-08-23T00:38:07.579Z,20.90
2018-08-23T00:40:43.970Z,20.90
2018-08-23T00:43:14.358Z,20.90
2018-08-23T00:45:42.906Z,20.90
2018-08-23T00:48:11.547Z,20.90
2018-08-23T00:50:56.098Z,20.80
2018-08-23T00:53:24.887Z,20.80
2018-08-23T00:56:25.562Z,20.80
2018-08-23T00:58:59.367Z,20.80
2018-08-23T01:01:28.088Z,20.80
2018-08-23T01:03:56.550Z,20.70
2018-08-23T01:06:36.860Z,20.70
2018-08-23T01:09:07.243Z,20.70
2018-08-23T01:11:35.903Z,20.70
2018-08-23T01:14:04.413Z,20.70
2018-08-23T01:16:33.099Z,20.70
2018-08-23T01:19:06.827Z,20.70
2018-08-23T01:21:48.892Z,20.50
2018-08-23T01:24:17.411Z,20.50
2018-08-23T01:26:45.876Z,20.50
2018-08-23T01:29:26.252Z,20.50
2018-08-23T01:31:55.667Z,20.40
2018-08-23T01:34:24.223Z,20.50
2018-08-23T01:36:52.822Z,20.40
2018-08-23T01:39:21.362Z,20.40
2018-08-23T01:41:50.172Z,20.40
2018-08-23T01:44:18.859Z,20.40
2018-08-23T01:46:47.386Z,20.30
2018-08-23T01:49:18.815Z,20.40
2018-08-23T01:51:47.531Z,20.40
2018-08-23T01:54:16.891Z,20.30
2018-08-23T01:56:45.344Z,20.40
2018-08-23T01:59:13.947Z,20.30
2018-08-23T02:01:42.466Z,20.30
2018-08-23T02:04:11.044Z,20.20
2018-08-23T02:06:39.526Z,20.20
2018-08-23T02:09:08.323Z,20.20
2018-08-23T02:11:36.823Z,20.20
2018-08-23T02:14:05.305Z,20.10
2018-08-23T02:16:45.378Z,20.10
2018-08-23T02:19:13.880Z,20.00
2018-08-23T02:21:42.336Z,20.00
2018-08-23T02:24:10.950Z,20.00
2018-08-23T02:26:39.450Z,20.00
2018-08-23T02:29:08.040Z,20.00
2018-08-23T02:31:36.643Z,20.00
2018-08-23T02:34:05.445Z,20.00
2018-08-23T02:36:33.932Z,20.00
2018-08-23T02:39:04.455Z,20.00
2018-08-23T02:41:33.078Z,19.90
2018-08-23T02:44:01.690Z,19.90
2018-08-23T02:46:32.283Z,19.90
2018-08-23T02:49:00.831Z,19.90
2018-08-23T02:51:41.653Z,19.80
2018-08-23T02:54:14.719Z,19.90
2018-08-23T02:56:48.603Z,19.80
2018-08-23T02:59:17.247Z,19.90
2018-08-23T03:01:47.126Z,19.90
2018-08-23T03:04:19.859Z,19.80
2018-08-23T03:07:03.153Z,19.70
2018-08-23T03:09:35.974Z,19.70
2018-08-23T03:12:14.043Z,19.60
2018-08-23T03:14:42.657Z,19.60
2018-08-23T03:17:13.476Z,19.60
2018-08-23T03:19:53.267Z,19.60
2018-08-23T03:22:21.892Z,19.70
2018-08-23T03:24:50.410Z,19.60
2018-08-23T03:27:18.924Z,19.60
2018-08-23T03:29:47.372Z,19.60
2018-08-23T03:32:15.963Z,19.50
2018-08-23T03:34:44.558Z,19.50
2018-08-23T03:37:13.051Z,19.50
2018-08-23T03:39:41.594Z,19.60
2018-08-23T03:42:10.138Z,19.60
2018-08-23T03:44:39.391Z,19.50
2018-08-23T03:47:07.943Z,19.50
2018-08-23T03:49:44.471Z,19.50
2018-08-23T03:52:14.803Z,19.50
2018-08-23T03:54:53.353Z,19.50
2018-08-23T03:57:21.834Z,19.50
2018-08-23T03:59:51.674Z,19.50
2018-08-23T04:02:21.196Z,19.40
2018-08-23T04:04:54.882Z,19.30
2018-08-23T04:07:23.376Z,19.30
2018-08-23T04:09:52.066Z,19.30
2018-08-23T04:12:20.686Z,19.30
2018-08-23T04:14:49.214Z,19.20
2018-08-23T04:17:17.687Z,19.30
2018-08-23T04:19:49.552Z,19.30
2018-08-23T04:22:18.827Z,19.20
2018-08-23T04:24:52.946Z,19.30
2018-08-23T04:27:21.727Z,19.20
2018-08-23T04:29:50.432Z,19.30
2018-08-23T04:32:28.267Z,19.30
2018-08-23T04:34:58.623Z,19.30
2018-08-23T04:37:27.735Z,19.30
2018-08-23T04:40:01.783Z,19.30
2018-08-23T04:42:30.375Z,19.20
2018-08-23T04:45:18.775Z,19.20
2018-08-23T04:48:19.040Z,19.20
2018-08-23T04:50:47.700Z,19.20
2018-08-23T04:53:16.191Z,19.20
2018-08-23T04:55:44.829Z,19.20
2018-08-23T04:58:13.340Z,19.20
2018-08-23T05:00:41.835Z,19.20
2018-08-23T05:03:10.359Z,19.20
2018-08-23T05:05:38.964Z,19.10
2018-08-23T05:08:07.416Z,19.00
2018-08-23T05:10:35.965Z,19.10
2018-08-23T05:13:04.561Z,19.10
2018-08-23T05:15:33.059Z,19.10
2018-08-23T05:18:01.643Z,19.10
2018-08-23T05:20:30.111Z,19.10
2018-08-23T05:23:03.773Z,19.10
2018-08-23T05:25:32.273Z,19.20
2018-08-23T05:28:16.139Z,19.10
2018-08-23T05:30:45.594Z,19.10
2018-08-23T05:33:16.538Z,19.20
2018-08-23T05:35:45.423Z,19.20
2018-08-23T05:38:14.635Z,19.20
2018-08-23T05:40:48.432Z,19.20
2018-08-23T05:43:17.214Z,19.20
2018-08-23T05:45:53.507Z,19.20
2018-08-23T05:48:32.440Z,19.20
2018-08-23T05:51:08.621Z,19.30
2018-08-23T05:53:43.803Z,19.30
2018-08-23T05:56:12.477Z,19.30
2018-08-23T05:58:41.356Z,19.30
2018-08-23T06:01:09.927Z,19.40
2018-08-23T06:03:38.948Z,19.40
2018-08-23T06:06:08.356Z,19.40
2018-08-23T06:08:36.946Z,19.50
2018-08-23T06:11:09.667Z,19.50
2018-08-23T06:13:38.474Z,19.60
2018-08-23T06:16:07.131Z,19.50
2018-08-23T06:18:35.746Z,19.60
2018-08-23T06:21:04.254Z,19.60
2018-08-23T06:24:03.275Z,19.60
2018-08-23T06:26:41.206Z,19.60
2018-08-23T06:29:12.806Z,19.60
2018-08-23T06:31:54.647Z,19.70
2018-08-23T06:34:24.219Z,19.80
2018-08-23T06:36:53.516Z,19.90
2018-08-23T06:39:22.254Z,19.80
2018-08-23T06:41:54.475Z,19.90
2018-08-23T06:44:23.782Z,19.80
2018-08-23T06:46:52.511Z,19.90
2018-08-23T06:49:21.005Z,19.90
2018-08-23T06:52:00.222Z,19.90
2018-08-23T06:54:28.704Z,20.00
2018-08-23T06:56:57.183Z,20.00
2018-08-23T06:59:25.775Z,20.10
2018-08-23T07:01:54.399Z,20.10
2018-08-23T07:04:22.907Z,20.20
2018-08-23T07:06:51.821Z,20.20
2018-08-23T07:09:20.410Z,20.30
2018-08-23T07:11:48.905Z,20.30
2018-08-23T07:14:18.716Z,20.40
2018-08-23T07:16:48.659Z,20.50
2018-08-23T07:19:33.219Z,20.50
2018-08-23T07:22:02.904Z,20.60
2018-08-23T07:24:44.062Z,20.70
2018-08-23T07:27:13.887Z,20.80
2018-08-23T07:29:47.603Z,20.80
2018-08-23T07:32:16.934Z,20.80
2018-08-23T07:35:24.543Z,20.90
2018-08-23T07:37:53.280Z,20.90
2018-08-23T07:40:24.064Z,20.90
2018-08-23T07:42:54.108Z,21.00
2018-08-23T07:45:22.863Z,21.10
2018-08-23T07:47:53.999Z,21.20
2018-08-23T07:50:22.783Z,21.30
2018-08-23T07:52:52.658Z,21.30
2018-08-23T07:55:21.462Z,21.40
2018-08-23T07:57:50.116Z,21.50
2018-08-23T08:00:31.129Z,21.60
2018-08-23T08:02:59.798Z,21.60
2018-08-23T08:05:29.543Z,21.70
2018-08-23T08:07:58.294Z,21.70
2018-08-23T08:10:31.851Z,21.80
2018-08-23T08:13:00.459Z,21.80
2018-08-23T08:15:29.166Z,21.90
2018-08-23T08:18:05.642Z,21.90
2018-08-23T08:20:34.544Z,21.90
2018-08-23T08:23:03.155Z,22.00
2018-08-23T08:25:32.967Z,22.00
2018-08-23T08:28:01.704Z,22.10
2018-08-23T08:30:41.954Z,22.20
2018-08-23T08:33:12.767Z,22.30
2018-08-23T08:35:43.546Z,22.30
2018-08-23T08:38:12.400Z,22.30
2018-08-23T08:40:41.013Z,22.40
2018-08-23T08:43:09.559Z,22.50
2018-08-23T08:45:38.180Z,22.50
2018-08-23T08:48:15.603Z,22.40
2018-08-23T08:50:49.478Z,22.40
2018-08-23T08:53:18.466Z,22.50
2018-08-23T08:55:46.971Z,22.60
2018-08-23T08:58:15.674Z,22.60
2018-08-23T09:00:51.429Z,22.70
2018-08-23T09:03:21.420Z,22.80
2018-08-23T09:05:50.087Z,22.70
2018-08-23T09:08:18.630Z,22.70
2018-08-23T09:10:47.183Z,22.80
2018-08-23T09:13:15.766Z,22.90
2018-08-23T09:15:48.011Z,23.00
2018-08-23T09:18:21.018Z,23.00
2018-08-23T09:20:52.842Z,23.10
2018-08-23T09:23:21.279Z,23.10
2018-08-23T09:25:49.813Z,23.10
2018-08-23T09:28:20.017Z,23.20
2018-08-23T09:30:48.641Z,23.20
2018-08-23T09:33:24.237Z,23.20
2018-08-23T09:35:52.826Z,23.20
2018-08-23T09:38:21.358Z,23.40
2018-08-23T09:40:50.216Z,23.50
2018-08-23T09:43:18.859Z,23.70
2018-08-23T09:45:47.446Z,23.70
2018-08-23T09:48:15.987Z,23.70
2018-08-23T09:50:44.576Z,23.70
2018-08-23T09:53:30.123Z,23.60
2018-08-23T09:55:58.627Z,23.60
2018-08-23T09:58:32.634Z,23.70
2018-08-23T10:01:06.314Z,23.70
2018-08-23T10:03:40.499Z,23.70
2018-08-23T10:06:14.559Z,23.60
2018-08-23T10:08:48.514Z,23.80
2018-08-23T10:11:22.385Z,23.80
2018-08-23T10:13:56.115Z,23.90
2018-08-23T10:16:29.881Z,24.00
2018-08-23T10:19:01.365Z,24.00
2018-08-23T10:21:35.372Z,24.10
2018-08-23T10:24:14.016Z,24.10
2018-08-23T10:26:42.710Z,24.20
2018-08-23T10:29:11.295Z,24.30
2018-08-23T10:31:39.961Z,24.30
2018-08-23T10:34:08.620Z,24.30
2018-08-23T10:36:37.239Z,24.40
2018-08-23T10:39:09.327Z,24.40
2018-08-23T10:41:37.894Z,24.40
2018-08-23T10:44:06.767Z,24.50
2018-08-23T10:46:40.863Z,24.50
2018-08-23T10:49:09.347Z,24.50
2018-08-23T10:51:38.406Z,24.50
2018-08-23T10:54:07.039Z,24.60
2018-08-23T10:56:35.482Z,24.70
2018-08-23T10:59:04.319Z,24.80
2018-08-23T11:01:32.932Z,24.90
2018-08-23T11:04:05.497Z,25.00
2018-08-23T11:06:35.292Z,25.10
2018-08-23T11:09:09.713Z,25.10
2018-08-23T11:11:38.717Z,25.20
2018-08-23T11:14:12.615Z,25.20
2018-08-23T11:16:46.515Z,25.20
2018-08-23T11:19:20.179Z,25.30
2018-08-23T11:21:48.819Z,25.30
2018-08-23T11:24:17.300Z,25.30
2018-08-23T11:26:46.034Z,25.50
2018-08-23T11:29:14.568Z,25.40
2018-08-23T11:31:43.175Z,25.40
2018-08-23T11:34:11.702Z,25.50
2018-08-23T11:36:40.312Z,25.50
2018-08-23T11:39:09.400Z,25.40
2018-08-23T11:41:38.059Z,25.50
2018-08-23T11:44:06.614Z,25.70
2018-08-23T11:46:35.229Z,25.80
2018-08-23T11:49:03.782Z,25.90
2018-08-23T11:51:32.416Z,25.90
2018-08-23T11:54:01.054Z,26.10
2018-08-23T11:56:29.603Z,26.00
2018-08-23T11:58:58.237Z,26.00
2018-08-23T12:01:26.690Z,26.10
2018-08-23T12:03:55.227Z,26.00
2018-08-23T12:06:23.737Z,25.90
2018-08-23T12:08:52.359Z,25.80
2018-08-23T12:11:20.931Z,25.70
2018-08-23T12:13:50.508Z,25.70
2018-08-23T12:16:19.275Z,25.70
2018-08-23T12:18:48.236Z,25.60
2018-08-23T12:21:16.790Z,25.60
2018-08-23T12:23:45.383Z,25.70
2018-08-23T12:26:13.984Z,25.60
2018-08-23T12:28:47.697Z,25.80
2018-08-23T12:31:16.326Z,25.60
2018-08-23T12:33:45.228Z,25.70
2018-08-23T12:36:18.048Z,25.80
2018-08-23T12:38:51.999Z,26.00
2018-08-23T12:41:26.034Z,26.00
2018-08-23T12:43:54.788Z,26.00
2018-08-23T12:46:23.315Z,25.90
2018-08-23T12:48:56.747Z,26.10
2018-08-23T12:51:25.351Z,25.90
2018-08-23T12:53:53.901Z,25.90
2018-08-23T12:56:22.513Z,25.90
2018-08-23T12:58:51.045Z,25.90
2018-08-23T13:01:19.744Z,26.00
2018-08-23T13:03:48.625Z,26.00
2018-08-23T13:06:17.100Z,26.00
2018-08-23T13:08:45.647Z,26.00
2018-08-23T13:11:14.362Z,26.10
2018-08-23T13:13:43.190Z,26.00
2018-08-23T13:16:12.102Z,26.10
2018-08-23T13:18:40.912Z,26.20
2018-08-23T13:21:09.939Z,25.80
2018-08-23T13:23:42.727Z,26.10
2018-08-23T13:26:11.306Z,26.00
2018-08-23T13:28:39.830Z,26.00
2018-08-23T13:31:08.324Z,25.90
2018-08-23T13:33:36.952Z,25.80
2018-08-23T13:36:05.517Z,25.90
2018-08-23T13:38:34.064Z,26.00
2018-08-23T13:41:02.744Z,26.10
2018-08-23T13:43:31.300Z,26.10
2018-08-23T13:45:59.815Z,26.20
2018-08-23T13:48:28.487Z,26.10
2018-08-23T13:50:56.884Z,26.10
2018-08-23T13:53:25.410Z,26.00
2018-08-23T13:55:54.016Z,26.10
2018-08-23T13:58:22.514Z,26.10
2018-08-23T14:00:51.167Z,26.00
2018-08-23T14:03:19.659Z,25.90
2018-08-23T14:05:48.364Z,26.00
2018-08-23T14:08:16.836Z,26.00
2018-08-23T14:10:45.425Z,26.00
2018-08-23T14:13:13.951Z,25.90
2018-08-23T14:15:47.903Z,26.00
2018-08-23T14:18:16.541Z,26.00
2018-08-23T14:20:45.148Z,26.00
2018-08-23T14:23:13.748Z,26.10
2018-08-23T14:25:42.254Z,26.10
2018-08-23T14:28:10.919Z,26.10
2018-08-23T14:30:39.735Z,26.10
2018-08-23T14:33:08.363Z,26.20
2018-08-23T14:35:37.048Z,26.20
2018-08-23T14:38:05.891Z,26.10
2018-08-23T14:40:34.343Z,26.10
2018-08-23T14:43:02.903Z,26.00
2018-08-23T14:45:33.110Z,26.10
2018-08-23T14:48:07.158Z,26.10
2018-08-23T14:50:36.627Z,26.10
2018-08-23T14:53:06.204Z,26.10
2018-08-23T14:55:40.250Z,26.10
2018-08-23T14:58:09.773Z,25.90
2018-08-23T15:00:38.293Z,25.90
2018-08-23T15:03:07.048Z,25.90
2018-08-23T15:05:36.125Z,26.00
2018-08-23T15:08:04.823Z,26.00
2018-08-23T15:10:33.546Z,25.90
2018-08-23T15:13:02.078Z,25.90
2018-08-23T15:15:35.793Z,25.90
2018-08-23T15:18:04.383Z,25.90
2018-08-23T15:20:33.244Z,25.90
2018-08-23T15:23:01.854Z,25.90
2018-08-23T15:25:30.410Z,25.80
2018-08-23T15:27:59.106Z,25.90
2018-08-23T15:30:27.700Z,25.90
2018-08-23T15:32:56.336Z,25.90
2018-08-23T15:35:24.956Z,25.90
2018-08-23T15:37:53.502Z,25.80
2018-08-23T15:40:22.208Z,25.80
2018-08-23T15:42:50.711Z,25.80
2018-08-23T15:45:20.215Z,25.80
2018-08-23T15:47:49.288Z,25.80
2018-08-23T15:50:17.772Z,25.80
2018-08-23T15:52:46.302Z,25.80
2018-08-23T15:55:14.887Z,25.80
2018-08-23T15:57:43.497Z,25.70
2018-08-23T16:00:12.199Z,25.80
2018-08-23T16:02:40.726Z,25.80
2018-08-23T16:05:09.504Z,25.70
2018-08-23T16:07:38.158Z,25.70
2018-08-23T16:10:08.199Z,25.70
2018-08-23T16:12:37.137Z,25.60
2018-08-23T16:15:22.895Z,25.70
2018-08-23T16:17:56.996Z,25.70
2018-08-23T16:20:31.140Z,25.70
2018-08-23T16:22:59.649Z,25.60
2018-08-23T16:25:28.335Z,25.60
2018-08-23T16:27:56.871Z,25.70
2018-08-23T16:30:25.487Z,25.60
2018-08-23T16:32:54.302Z,25.70
2018-08-23T16:35:23.112Z,25.60
2018-08-23T16:37:51.653Z,25.60
2018-08-23T16:40:34.684Z,25.60
2018-08-23T16:43:04.192Z,25.60
2018-08-23T16:45:32.839Z,25.60
2018-08-23T16:48:01.398Z,25.50
2018-08-23T16:50:29.952Z,25.50
2018-08-23T16:52:58.542Z,25.50
2018-08-23T16:55:27.320Z,25.50
2018-08-23T16:57:55.910Z,25.40
2018-08-23T17:00:24.489Z,25.40
2018-08-23T17:02:53.177Z,25.30
2018-08-23T17:05:21.711Z,25.30
2018-08-23T17:07:50.514Z,25.20
2018-08-23T17:10:19.155Z,25.20
2018-08-23T17:12:47.752Z,25.10
2018-08-23T17:15:16.816Z,25.10
2018-08-23T17:17:50.763Z,25.00
2018-08-23T17:20:19.241Z,25.00
2018-08-23T17:22:47.936Z,25.00
2018-08-23T17:25:16.868Z,24.90
2018-08-23T17:27:45.310Z,24.90
2018-08-23T17:30:13.912Z,24.80
2018-08-23T17:32:42.484Z,24.80
2018-08-23T17:35:10.987Z,24.70
2018-08-23T17:37:39.580Z,24.60
2018-08-23T17:40:08.114Z,24.60
2018-08-23T17:42:43.210Z,24.60
2018-08-23T17:45:13.008Z,24.60
2018-08-23T17:47:41.700Z,24.50
2018-08-23T17:50:10.383Z,24.50
2018-08-23T17:52:39.064Z,24.40
2018-08-23T17:55:07.811Z,24.40
2018-08-23T17:57:36.506Z,24.40
2018-08-23T18:00:05.455Z,24.40
2018-08-23T18:02:34.085Z,24.30
2018-08-23T18:05:02.908Z,24.30
2018-08-23T18:07:31.545Z,24.20
2018-08-23T18:10:00.101Z,24.20
2018-08-23T18:12:28.592Z,24.10
2018-08-23T18:14:57.212Z,24.10
2018-08-23T18:17:26.035Z,24.00
2018-08-23T18:19:55.048Z,24.00
2018-08-23T18:22:23.709Z,23.90
2018-08-23T18:24:52.950Z,23.90
2018-08-23T18:27:21.464Z,23.80
2018-08-23T18:29:50.039Z,23.70
2018-08-23T18:32:18.704Z,23.70
2018-08-23T18:34:47.255Z,23.60
2018-08-23T18:37:15.965Z,23.50
2018-08-23T18:39:44.612Z,23.50
2018-08-23T18:42:13.308Z,23.50
2018-08-23T18:44:42.088Z,23.40
2018-08-23T18:47:10.727Z,23.40
2018-08-23T18:49:39.536Z,23.30
2018-08-23T18:52:08.092Z,23.20
2018-08-23T18:54:36.611Z,23.20
2018-08-23T18:57:05.646Z,23.20
2018-08-23T18:59:34.526Z,23.10
2018-08-23T19:02:03.598Z,23.10
2018-08-23T19:04:32.272Z,23.10
2018-08-23T19:07:00.935Z,23.10
2018-08-23T19:09:29.669Z,23.10
2018-08-23T19:11:58.351Z,23.00
2018-08-23T19:14:27.224Z,23.00
2018-08-23T19:17:01.068Z,22.90
2018-08-23T19:19:29.714Z,22.90
2018-08-23T19:21:58.451Z,22.90
2018-08-23T19:24:27.291Z,22.90
2018-08-23T19:26:55.980Z,22.90
2018-08-23T19:29:24.674Z,22.90
2018-08-23T19:31:53.304Z,22.80
2018-08-23T19:34:21.775Z,22.80
2018-08-23T19:36:50.441Z,22.80
2018-08-23T19:39:19.356Z,22.70
2018-08-23T19:41:47.887Z,22.70
2018-08-23T19:44:16.813Z,22.60
2018-08-23T19:46:50.790Z,22.60
2018-08-23T19:49:24.500Z,22.50
2018-08-23T19:51:53.185Z,22.50
2018-08-23T19:54:21.711Z,22.50
2018-08-23T19:56:50.357Z,22.40
2018-08-23T19:59:18.890Z,22.30
2018-08-23T20:01:47.454Z,22.30
2018-08-23T20:04:16.190Z,22.30
2018-08-23T20:06:44.915Z,22.20
2018-08-23T20:09:13.601Z,22.20
2018-08-23T20:11:42.356Z,22.20
2018-08-23T20:14:10.919Z,22.10
2018-08-23T20:16:39.512Z,22.10
2018-08-23T20:19:08.348Z,22.10
2018-08-23T20:21:36.970Z,22.10
2018-08-23T20:24:05.930Z,22.00
2018-08-23T20:26:34.523Z,22.00
2018-08-23T20:29:03.154Z,21.90
2018-08-23T20:31:31.791Z,21.80
2018-08-23T20:34:00.786Z,21.80
2018-08-23T20:36:29.399Z,21.80
2018-08-23T20:38:58.006Z,21.80
2018-08-23T20:41:26.533Z,21.80
2018-08-23T20:43:55.118Z,21.80
2018-08-23T20:46:23.748Z,21.80
2018-08-23T20:48:52.431Z,21.80
2018-08-23T20:51:21.140Z,21.80
2018-08-23T20:53:49.853Z,21.80
2018-08-23T20:56:18.439Z,21.80
2018-08-23T20:58:47.120Z,21.70
2018-08-23T21:01:15.656Z,21.70
2018-08-23T21:03:44.272Z,21.70
2018-08-23T21:06:12.762Z,21.70
2018-08-23T21:08:41.267Z,21.70
2018-08-23T21:11:09.766Z,21.70
2018-08-23T21:13:38.460Z,21.60
2018-08-23T21:16:07.212Z,21.60
2018-08-23T21:18:36.020Z,21.60
2018-08-23T21:21:04.900Z,21.60
2018-08-23T21:23:33.522Z,21.50
2018-08-23T21:26:02.044Z,21.50
2018-08-23T21:28:30.871Z,21.50
2018-08-23T21:30:59.699Z,21.60
2018-08-23T21:33:28.239Z,21.50
2018-08-23T21:35:56.934Z,21.50
2018-08-23T21:38:25.858Z,21.50
2018-08-23T21:40:54.772Z,21.50
2018-08-23T21:43:23.274Z,21.40
2018-08-23T21:45:51.799Z,21.40
2018-08-23T21:48:20.292Z,21.40
2018-08-23T21:50:48.824Z,21.40
2018-08-23T21:53:17.539Z,21.30
2018-08-23T21:55:46.150Z,21.30
2018-08-23T21:58:14.674Z,21.30
2018-08-23T22:00:48.487Z,21.30
2018-08-23T22:03:16.998Z,21.30
2018-08-23T22:05:45.519Z,21.20
2018-08-23T22:08:14.268Z,21.20
2018-08-23T22:10:42.995Z,21.20
2018-08-23T22:13:11.881Z,21.10
2018-08-23T22:15:46.468Z,21.10
2018-08-23T22:18:15.549Z,21.10
2018-08-23T22:20:44.218Z,21.00
2018-08-23T22:23:13.290Z,21.00
2018-08-23T22:25:42.284Z,21.00
2018-08-23T22:28:11.168Z,21.00
2018-08-23T22:30:40.445Z,21.00
2018-08-23T22:33:10.297Z,20.90
2018-08-23T22:35:38.953Z,20.90
2018-08-23T22:38:08.062Z,20.90
2018-08-23T22:40:37.040Z,20.90
2018-08-23T22:43:05.879Z,20.90
2018-08-23T22:45:34.481Z,20.90
2018-08-23T22:48:02.972Z,20.90
2018-08-23T22:50:31.558Z,20.90
2018-08-23T22:53:00.058Z,20.90
2018-08-23T22:55:28.715Z,20.90
2018-08-23T22:57:57.576Z,20.90
2018-08-23T23:00:31.354Z,20.90
2018-08-23T23:02:59.830Z,20.90
2018-08-23T23:05:28.475Z,20.90
2018-08-23T23:08:01.278Z,20.80
2018-08-23T23:10:29.944Z,20.90
2018-08-23T23:12:58.402Z,20.80
2018-08-23T23:15:26.889Z,20.90
2018-08-23T23:17:55.600Z,20.80
2018-08-23T23:20:24.103Z,20.80
2018-08-23T23:22:52.706Z,20.80
2018-08-23T23:25:21.190Z,20.80
2018-08-23T23:27:49.915Z,20.80
2018-08-23T23:30:18.371Z,20.80
2018-08-23T23:32:46.838Z,20.80
2018-08-23T23:35:15.539Z,20.80
2018-08-23T23:37:44.027Z,20.80
2018-08-23T23:40:12.715Z,20.80
2018-08-23T23:42:41.219Z,20.80
2018-08-23T23:45:09.843Z,20.80
2018-08-23T23:47:38.514Z,20.80
2018-08-23T23:50:07.453Z,20.80
2018-08-23T23:52:36.052Z,20.80
2018-08-23T23:55:04.634Z,20.80
2018-08-23T23:57:33.344Z,20.80
